createdAt,value
2024-04-30T00:01:57.529Z,2.20
2024-04-30T00:04:25.291Z,1.80
2024-04-30T00:06:52.868Z,2.00
2024-04-30T00:09:20.392Z,2.10
2024-04-30T00:11:47.898Z,2.20
2024-04-30T00:14:15.424Z,2.07
2024-04-30T00:16:44.623Z,1.93
2024-04-30T00:19:12.552Z,1.90
2024-04-30T00:21:46.346Z,2.17
2024-04-30T00:24:14.111Z,2.60
2024-04-30T00:26:41.669Z,2.30
2024-04-30T00:29:09.234Z,2.53
2024-04-30T00:31:42.248Z,2.53
2024-04-30T00:34:09.826Z,2.47
2024-04-30T00:36:40.586Z,2.23
2024-04-30T00:39:16.092Z,2.63
2024-04-30T00:41:43.623Z,2.30
2024-04-30T00:44:11.163Z,2.20
2024-04-30T00:46:39.354Z,1.67
2024-04-30T00:49:08.972Z,1.90
2024-04-30T00:51:36.677Z,2.00
2024-04-30T00:54:05.133Z,1.90
2024-04-30T00:56:32.797Z,2.00
2024-04-30T00:59:01.827Z,2.10
2024-04-30T01:01:29.576Z,1.83
2024-04-30T01:03:57.177Z,1.83
2024-04-30T01:06:24.864Z,2.03
2024-04-30T01:08:52.399Z,2.17
2024-04-30T01:11:20.143Z,2.10
2024-04-30T01:13:47.818Z,2.00
2024-04-30T01:16:18.344Z,1.87
2024-04-30T01:18:45.904Z,2.20
2024-04-30T01:21:13.482Z,2.20
2024-04-30T01:23:41.103Z,2.30
2024-04-30T01:26:08.713Z,2.37
2024-04-30T01:28:36.295Z,2.40
2024-04-30T01:31:03.957Z,2.30
2024-04-30T01:33:31.592Z,2.50
2024-04-30T01:35:59.348Z,2.17
2024-04-30T01:38:26.967Z,2.23
2024-04-30T01:40:59.003Z,2.50
2024-04-30T01:43:26.569Z,2.53
2024-04-30T01:45:56.972Z,2.40
2024-04-30T01:48:24.620Z,2.20
2024-04-30T01:50:52.269Z,2.13
2024-04-30T01:53:20.371Z,2.20
2024-04-30T01:55:47.884Z,2.47
2024-04-30T01:58:15.482Z,2.00
2024-04-30T02:00:43.058Z,2.70
2024-04-30T02:03:10.649Z,2.23
2024-04-30T02:05:38.287Z,2.23
2024-04-30T02:08:06.233Z,2.00
2024-04-30T02:10:33.795Z,2.33
2024-04-30T02:13:01.405Z,1.93
2024-04-30T02:15:28.962Z,2.20
2024-04-30T02:17:56.527Z,2.30
2024-04-30T02:20:24.081Z,1.97
2024-04-30T02:22:51.690Z,2.60
2024-04-30T02:25:24.890Z,2.37
2024-04-30T02:27:52.456Z,2.20
2024-04-30T02:30:42.859Z,2.30
2024-04-30T02:33:35.785Z,2.60
2024-04-30T02:36:06.950Z,2.53
2024-04-30T02:38:34.513Z,2.10
2024-04-30T02:41:02.138Z,1.90
2024-04-30T02:43:29.846Z,2.57
2024-04-30T02:45:57.484Z,2.10
2024-04-30T02:48:26.652Z,2.23
2024-04-30T02:50:54.166Z,2.10
2024-04-30T02:53:21.846Z,2.23
2024-04-30T02:55:49.545Z,2.07
2024-04-30T02:58:17.181Z,2.30
2024-04-30T03:00:47.233Z,2.20
2024-04-30T03:03:14.935Z,2.33
2024-04-30T03:05:42.570Z,2.07
2024-04-30T03:08:10.185Z,2.17
2024-04-30T03:10:37.862Z,2.60
2024-04-30T03:13:05.638Z,2.20
2024-04-30T03:15:33.329Z,2.23
2024-04-30T03:18:04.881Z,2.00
2024-04-30T03:20:32.876Z,2.00
2024-04-30T03:23:01.783Z,2.17
2024-04-30T03:25:29.445Z,2.20
2024-04-30T03:27:59.797Z,2.10
2024-04-30T03:30:28.197Z,2.17
2024-04-30T03:32:58.512Z,2.30
2024-04-30T03:35:27.829Z,2.10
2024-04-30T03:37:55.675Z,2.00
2024-04-30T03:40:23.375Z,2.30
2024-04-30T03:42:53.731Z,2.37
2024-04-30T03:45:22.067Z,2.33
2024-04-30T03:47:49.847Z,2.40
2024-04-30T03:50:17.461Z,2.13
2024-04-30T03:52:45.043Z,2.30
2024-04-30T03:55:12.642Z,2.20
2024-04-30T03:57:40.190Z,2.20
2024-04-30T04:00:11.167Z,2.13
2024-04-30T04:02:38.821Z,2.13
2024-04-30T04:05:06.612Z,2.07
2024-04-30T04:07:34.235Z,2.13
2024-04-30T04:10:02.025Z,2.00
2024-04-30T04:12:48.248Z,2.07
2024-04-30T04:15:15.803Z,2.00
2024-04-30T04:17:43.494Z,2.20
2024-04-30T04:20:11.182Z,2.40
2024-04-30T04:22:38.856Z,2.00
2024-04-30T04:25:06.778Z,2.07
2024-04-30T04:27:34.401Z,2.50
2024-04-30T04:30:03.168Z,2.30
2024-04-30T04:32:31.638Z,2.57
2024-04-30T04:34:59.232Z,2.20
2024-04-30T04:37:27.631Z,2.40
2024-04-30T04:39:55.383Z,2.43
2024-04-30T04:42:22.933Z,1.93
2024-04-30T04:44:50.485Z,2.23
2024-04-30T04:47:18.154Z,2.80
2024-04-30T04:49:45.806Z,2.57
2024-04-30T04:52:13.546Z,2.50
2024-04-30T04:54:41.176Z,2.97
2024-04-30T04:57:08.699Z,2.77
2024-04-30T04:59:36.234Z,2.80
2024-04-30T05:02:03.978Z,3.13
2024-04-30T05:04:31.628Z,2.80
2024-04-30T05:07:01.071Z,3.53
2024-04-30T05:09:29.855Z,4.17
2024-04-30T05:11:57.789Z,4.00
2024-04-30T05:14:25.326Z,4.50
2024-04-30T05:16:52.879Z,3.60
2024-04-30T05:19:20.515Z,3.90
2024-04-30T05:21:48.350Z,4.27
2024-04-30T05:24:15.890Z,3.87
2024-04-30T05:26:43.418Z,3.83
2024-04-30T05:29:10.935Z,3.77
2024-04-30T05:31:41.627Z,3.70
2024-04-30T05:34:09.190Z,3.50
2024-04-30T05:36:36.719Z,3.90
2024-04-30T05:39:04.259Z,3.47
2024-04-30T05:41:32.027Z,4.13
2024-04-30T05:43:59.520Z,4.17
2024-04-30T05:46:27.329Z,3.70
2024-04-30T05:48:55.064Z,4.03
2024-04-30T05:51:22.838Z,3.17
2024-04-30T05:53:52.824Z,3.53
2024-04-30T05:56:21.735Z,4.20
2024-04-30T05:58:49.254Z,3.50
2024-04-30T06:01:16.980Z,4.10
2024-04-30T06:03:44.685Z,3.17
2024-04-30T06:06:12.650Z,3.43
2024-04-30T06:08:41.725Z,3.47
2024-04-30T06:11:10.027Z,3.67
2024-04-30T06:13:38.021Z,4.00
2024-04-30T06:16:06.401Z,3.23
2024-04-30T06:18:34.042Z,3.33
2024-04-30T06:21:01.591Z,3.60
2024-04-30T06:23:29.106Z,3.93
2024-04-30T06:25:57.137Z,3.60
2024-04-30T06:28:24.738Z,3.60
2024-04-30T06:30:52.276Z,3.60
2024-04-30T06:33:19.893Z,3.27
2024-04-30T06:35:47.517Z,3.07
2024-04-30T06:38:15.146Z,3.60
2024-04-30T06:40:42.770Z,3.30
2024-04-30T06:43:10.324Z,3.10
2024-04-30T06:45:37.851Z,3.27
2024-04-30T06:48:07.966Z,3.07
2024-04-30T06:50:36.196Z,3.40
2024-04-30T06:53:03.736Z,3.27
2024-04-30T06:55:31.307Z,4.00
2024-04-30T06:57:58.883Z,3.50
2024-04-30T07:00:26.429Z,3.43
2024-04-30T07:02:54.042Z,2.80
2024-04-30T07:05:21.698Z,2.80
2024-04-30T07:07:49.313Z,3.00
2024-04-30T07:10:16.837Z,3.33
2024-04-30T07:12:44.624Z,3.07
2024-04-30T07:15:12.198Z,3.30
2024-04-30T07:17:42.877Z,3.37
2024-04-30T07:20:11.055Z,2.80
2024-04-30T07:22:38.609Z,2.80
2024-04-30T07:25:08.260Z,2.77
2024-04-30T07:27:35.937Z,2.60
2024-04-30T07:30:03.727Z,2.30
2024-04-30T07:32:31.365Z,2.03
2024-04-30T07:35:01.327Z,2.20
2024-04-30T07:37:28.969Z,1.93
2024-04-30T07:39:56.475Z,1.90
2024-04-30T07:42:24.298Z,2.00
2024-04-30T07:44:51.909Z,1.70
2024-04-30T07:47:19.547Z,1.80
2024-04-30T07:49:47.114Z,2.00
2024-04-30T07:52:18.370Z,1.60
2024-04-30T07:54:47.811Z,1.80
2024-04-30T07:57:16.977Z,1.57
2024-04-30T07:59:44.564Z,1.50
2024-04-30T08:02:14.567Z,1.47
2024-04-30T08:04:43.731Z,1.53
2024-04-30T08:07:11.481Z,1.50
2024-04-30T08:09:39.132Z,1.60
2024-04-30T08:12:07.278Z,1.30
2024-04-30T08:14:36.478Z,1.20
2024-04-30T08:17:05.401Z,1.50
2024-04-30T08:19:34.501Z,1.50
2024-04-30T08:22:02.063Z,1.20
2024-04-30T08:24:34.634Z,1.20
2024-04-30T08:27:02.188Z,1.93
2024-04-30T08:29:32.491Z,1.60
2024-04-30T08:32:00.525Z,1.60
2024-04-30T08:34:28.134Z,2.33
2024-04-30T08:36:55.784Z,1.90
2024-04-30T08:39:23.349Z,1.70
2024-04-30T08:41:51.160Z,1.40
2024-04-30T08:44:20.623Z,1.17
2024-04-30T08:46:52.176Z,1.33
2024-04-30T08:49:43.053Z,1.30
2024-04-30T08:52:17.581Z,1.37
2024-04-30T08:54:45.299Z,1.20
2024-04-30T08:57:12.823Z,1.50
2024-04-30T08:59:40.360Z,1.30
2024-04-30T09:02:09.050Z,1.20
2024-04-30T09:04:40.716Z,1.08
2024-04-30T09:07:08.472Z,1.23
2024-04-30T09:09:36.024Z,1.20
2024-04-30T09:12:04.643Z,1.20
2024-04-30T09:14:32.328Z,1.33
2024-04-30T09:17:00.049Z,1.10
2024-04-30T09:19:30.417Z,0.98
2024-04-30T09:22:07.910Z,1.33
2024-04-30T09:24:35.633Z,1.10
2024-04-30T09:27:03.189Z,0.98
2024-04-30T09:29:39.350Z,1.17
2024-04-30T09:32:08.575Z,1.02
2024-04-30T09:34:43.676Z,1.45
2024-04-30T09:37:22.294Z,1.50
2024-04-30T09:39:53.917Z,1.20
2024-04-30T09:42:23.533Z,1.30
2024-04-30T09:44:51.791Z,1.10
2024-04-30T09:47:22.203Z,1.08
2024-04-30T09:49:50.247Z,1.40
2024-04-30T09:52:20.505Z,1.10
2024-04-30T09:54:48.193Z,1.20
2024-04-30T09:57:17.608Z,1.30
2024-04-30T09:59:45.244Z,1.27
2024-04-30T10:02:16.548Z,1.27
2024-04-30T10:04:45.820Z,1.30
2024-04-30T10:07:15.214Z,1.20
2024-04-30T10:09:56.436Z,1.05
2024-04-30T10:12:28.750Z,1.55
2024-04-30T10:14:58.431Z,1.20
2024-04-30T10:17:26.048Z,0.93
2024-04-30T10:19:53.708Z,0.80
2024-04-30T10:22:21.472Z,1.10
2024-04-30T10:24:49.006Z,1.13
2024-04-30T10:27:23.371Z,1.20
2024-04-30T10:29:51.124Z,1.45
2024-04-30T10:32:18.746Z,1.20
2024-04-30T10:34:59.344Z,3.88
2024-04-30T10:37:31.312Z,1.55
2024-04-30T10:40:13.031Z,1.10
2024-04-30T10:42:40.667Z,1.08
2024-04-30T10:45:08.711Z,1.17
2024-04-30T10:47:37.302Z,1.10
2024-04-30T10:50:17.975Z,1.20
2024-04-30T10:52:47.977Z,1.33
2024-04-30T10:55:18.836Z,1.17
2024-04-30T10:57:46.735Z,1.20
2024-04-30T11:00:14.448Z,1.02
2024-04-30T11:02:47.975Z,1.10
2024-04-30T11:05:23.868Z,1.15
2024-04-30T11:07:58.728Z,1.10
2024-04-30T11:10:30.723Z,1.00
2024-04-30T11:12:59.422Z,1.10
2024-04-30T11:15:27.418Z,1.65
2024-04-30T11:17:55.223Z,1.45
2024-04-30T11:20:23.196Z,1.20
2024-04-30T11:22:50.766Z,1.10
2024-04-30T11:25:18.406Z,1.95
2024-04-30T11:27:46.200Z,2.13
2024-04-30T11:30:13.818Z,1.40
2024-04-30T11:32:41.857Z,1.67
2024-04-30T11:35:09.547Z,1.20
2024-04-30T11:37:37.202Z,1.10
2024-04-30T11:40:05.273Z,1.50
2024-04-30T11:42:39.097Z,1.45
2024-04-30T11:45:15.019Z,0.90
2024-04-30T11:47:43.052Z,1.27
2024-04-30T11:50:10.801Z,1.05
2024-04-30T11:52:40.596Z,1.67
2024-04-30T11:55:08.672Z,1.25
2024-04-30T11:57:37.152Z,1.23
2024-04-30T12:00:05.442Z,1.20
2024-04-30T12:02:33.158Z,1.30
2024-04-30T12:05:02.106Z,1.40
2024-04-30T12:07:29.875Z,1.20
2024-04-30T12:09:57.506Z,1.25
2024-04-30T12:12:25.025Z,1.02
2024-04-30T12:14:52.641Z,1.00
2024-04-30T12:17:20.683Z,1.20
2024-04-30T12:19:48.356Z,1.17
2024-04-30T12:22:15.923Z,1.70
2024-04-30T12:24:43.446Z,1.73
2024-04-30T12:27:10.962Z,1.00
2024-04-30T12:29:38.470Z,1.30
2024-04-30T12:32:10.606Z,1.10
2024-04-30T12:34:39.418Z,1.25
2024-04-30T12:37:07.900Z,1.48
2024-04-30T12:39:35.529Z,1.50
2024-04-30T12:42:03.173Z,1.33
2024-04-30T12:44:30.683Z,1.50
2024-04-30T12:46:58.230Z,1.08
2024-04-30T12:49:25.819Z,1.20
2024-04-30T12:51:53.408Z,1.33
2024-04-30T12:54:23.446Z,1.40
2024-04-30T12:56:50.995Z,1.25
2024-04-30T12:59:18.496Z,1.40
2024-04-30T13:01:46.149Z,1.23
2024-04-30T13:04:13.845Z,1.30
2024-04-30T13:06:42.075Z,1.52
2024-04-30T13:09:09.788Z,1.50
2024-04-30T13:11:37.932Z,1.08
2024-04-30T13:14:05.585Z,1.40
2024-04-30T13:16:33.745Z,1.55
2024-04-30T13:19:01.423Z,1.40
2024-04-30T13:21:29.062Z,1.50
2024-04-30T13:23:56.579Z,1.30
2024-04-30T13:26:24.180Z,1.55
2024-04-30T13:28:51.766Z,1.52
2024-04-30T13:31:19.328Z,1.58
2024-04-30T13:33:46.875Z,1.40
2024-04-30T13:36:14.527Z,1.33
2024-04-30T13:38:42.051Z,1.42
2024-04-30T13:41:09.620Z,1.20
2024-04-30T13:43:38.473Z,1.48
2024-04-30T13:46:06.279Z,1.17
2024-04-30T13:48:33.915Z,1.35
2024-04-30T13:51:01.704Z,1.27
2024-04-30T13:53:29.237Z,1.30
2024-04-30T13:55:56.744Z,1.30
2024-04-30T13:58:24.338Z,1.83
2024-04-30T14:00:51.898Z,1.23
2024-04-30T14:03:19.478Z,1.50
2024-04-30T14:05:47.299Z,1.20
2024-04-30T14:08:15.190Z,1.20
2024-04-30T14:10:42.852Z,1.60
2024-04-30T14:13:10.835Z,1.40
2024-04-30T14:15:38.405Z,1.35
2024-04-30T14:18:07.263Z,1.50
2024-04-30T14:20:35.084Z,1.58
2024-04-30T14:23:02.643Z,1.30
2024-04-30T14:25:30.239Z,1.30
2024-04-30T14:27:57.782Z,1.45
2024-04-30T14:30:25.332Z,1.40
2024-04-30T14:32:53.214Z,1.85
2024-04-30T14:35:20.932Z,1.90
2024-04-30T14:37:48.636Z,1.40
2024-04-30T14:40:16.431Z,1.55
2024-04-30T14:42:43.975Z,1.50
2024-04-30T14:45:11.521Z,1.33
2024-04-30T14:47:39.381Z,1.75
2024-04-30T14:50:07.252Z,1.90
2024-04-30T14:52:34.784Z,1.55
2024-04-30T14:55:02.346Z,1.48
2024-04-30T14:57:29.910Z,1.52
2024-04-30T14:59:57.415Z,1.65
2024-04-30T15:02:24.970Z,1.30
2024-04-30T15:04:52.551Z,1.48
2024-04-30T15:07:20.618Z,1.48
2024-04-30T15:09:55.833Z,1.80
2024-04-30T15:12:23.409Z,1.65
2024-04-30T15:14:52.350Z,1.77
2024-04-30T15:17:22.443Z,1.60
2024-04-30T15:19:50.075Z,1.50
2024-04-30T15:22:17.690Z,1.50
2024-04-30T15:24:48.300Z,1.60
2024-04-30T15:27:15.912Z,1.35
2024-04-30T15:29:43.571Z,1.58
2024-04-30T15:32:11.100Z,1.40
2024-04-30T15:34:39.702Z,1.45
2024-04-30T15:37:07.343Z,1.58
2024-04-30T15:39:35.128Z,2.05
2024-04-30T15:42:02.668Z,2.17
2024-04-30T15:44:30.186Z,1.50
2024-04-30T15:46:57.751Z,1.38
2024-04-30T15:49:25.342Z,1.20
2024-04-30T15:51:52.904Z,1.40
2024-04-30T15:54:22.892Z,1.60
2024-04-30T15:56:54.718Z,1.80
2024-04-30T15:59:28.777Z,1.65
2024-04-30T16:01:56.433Z,2.13
2024-04-30T16:04:24.197Z,3.00
2024-04-30T16:06:51.730Z,2.20
2024-04-30T16:09:19.294Z,2.47
2024-04-30T16:11:46.887Z,1.90
2024-04-30T16:14:14.560Z,2.30
2024-04-30T16:16:42.612Z,1.85
2024-04-30T16:19:13.467Z,2.40
2024-04-30T16:21:41.155Z,2.20
2024-04-30T16:24:13.003Z,2.10
2024-04-30T16:26:43.551Z,1.83
2024-04-30T16:29:11.126Z,1.80
2024-04-30T16:31:39.056Z,3.60
2024-04-30T16:34:07.910Z,3.30
2024-04-30T16:36:35.497Z,3.55
2024-04-30T16:39:03.130Z,3.20
2024-04-30T16:41:30.638Z,2.30
2024-04-30T16:43:58.378Z,2.63
2024-04-30T16:46:25.886Z,2.40
2024-04-30T16:48:54.560Z,2.70
2024-04-30T16:51:22.225Z,2.67
2024-04-30T16:53:49.783Z,2.20
2024-04-30T16:56:18.786Z,2.35
2024-04-30T16:58:51.075Z,2.53
2024-04-30T17:01:19.007Z,1.90
2024-04-30T17:03:46.810Z,2.17
2024-04-30T17:06:14.582Z,1.92
2024-04-30T17:08:42.364Z,2.75
2024-04-30T17:11:11.029Z,2.00
2024-04-30T17:13:45.376Z,2.50
2024-04-30T17:16:23.950Z,2.30
2024-04-30T17:18:51.766Z,2.35
2024-04-30T17:21:22.444Z,2.63
2024-04-30T17:23:50.443Z,2.60
2024-04-30T17:26:26.453Z,2.88
2024-04-30T17:28:55.103Z,2.58
2024-04-30T17:31:22.685Z,2.40
2024-04-30T17:33:55.736Z,2.80
2024-04-30T17:36:23.491Z,2.70
2024-04-30T17:38:51.216Z,2.70
2024-04-30T17:41:28.513Z,2.20
2024-04-30T17:43:56.060Z,2.47
2024-04-30T17:46:26.768Z,2.42
2024-04-30T17:48:55.985Z,2.50
2024-04-30T17:51:25.714Z,2.67
2024-04-30T17:53:53.848Z,2.53
2024-04-30T17:56:21.579Z,1.83
2024-04-30T17:58:49.251Z,3.03
2024-04-30T18:01:18.708Z,2.58
2024-04-30T18:03:55.411Z,2.67
2024-04-30T18:06:23.520Z,2.10
2024-04-30T18:08:58.039Z,2.40
2024-04-30T18:11:30.163Z,2.88
2024-04-30T18:13:58.269Z,2.53
2024-04-30T18:16:29.904Z,1.88
2024-04-30T18:18:57.719Z,1.95
2024-04-30T18:21:29.555Z,2.80
2024-04-30T18:23:57.110Z,2.55
2024-04-30T18:26:24.674Z,2.10
2024-04-30T18:28:55.348Z,2.10
2024-04-30T18:31:25.425Z,2.00
2024-04-30T18:33:54.199Z,2.13
2024-04-30T18:36:23.830Z,1.98
2024-04-30T18:38:51.599Z,2.17
2024-04-30T18:41:25.076Z,2.10
2024-04-30T18:43:58.386Z,2.23
2024-04-30T18:46:26.045Z,2.50
2024-04-30T18:48:53.756Z,2.43
2024-04-30T18:51:21.640Z,2.00
2024-04-30T18:53:50.401Z,2.37
2024-04-30T18:56:18.654Z,2.10
2024-04-30T18:58:47.515Z,1.90
2024-04-30T19:01:16.380Z,2.30
2024-04-30T19:03:47.386Z,2.30
2024-04-30T19:06:19.177Z,2.30
2024-04-30T19:08:46.743Z,2.30
2024-04-30T19:11:14.365Z,2.67
2024-04-30T19:13:44.513Z,2.43
2024-04-30T19:16:12.223Z,2.93
2024-04-30T19:18:39.920Z,3.20
2024-04-30T19:21:07.758Z,3.40
2024-04-30T19:23:35.983Z,2.50
2024-04-30T19:26:04.258Z,3.00
2024-04-30T19:28:31.932Z,3.10
2024-04-30T19:30:59.598Z,3.60
2024-04-30T19:33:27.352Z,2.97
2024-04-30T19:35:55.025Z,3.13
2024-04-30T19:38:22.603Z,3.30
2024-04-30T19:40:50.387Z,3.30
2024-04-30T19:43:17.978Z,3.90
2024-04-30T19:45:45.567Z,2.97
2024-04-30T19:48:16.885Z,3.40
2024-04-30T19:50:47.083Z,4.17
2024-04-30T19:53:14.662Z,2.77
2024-04-30T19:55:42.346Z,2.90
2024-04-30T19:58:10.132Z,3.10
2024-04-30T20:00:37.947Z,2.83
2024-04-30T20:03:06.010Z,2.63
2024-04-30T20:05:33.661Z,3.10
2024-04-30T20:08:01.159Z,3.23
2024-04-30T20:10:29.202Z,3.60
2024-04-30T20:12:56.976Z,2.80
2024-04-30T20:15:24.610Z,4.10
2024-04-30T20:17:52.260Z,4.00
2024-04-30T20:20:19.906Z,4.43
2024-04-30T20:22:47.439Z,5.00
2024-04-30T20:25:15.282Z,4.60
2024-04-30T20:27:42.859Z,4.93
2024-04-30T20:30:12.205Z,4.63
2024-04-30T20:32:41.043Z,4.40
2024-04-30T20:35:09.301Z,3.47
2024-04-30T20:37:36.840Z,3.77
2024-04-30T20:40:04.693Z,3.17
2024-04-30T20:42:32.426Z,4.00
2024-04-30T20:45:00.227Z,3.60
2024-04-30T20:47:27.851Z,3.73
2024-04-30T20:49:55.422Z,4.20
2024-04-30T20:52:23.078Z,4.13
2024-04-30T20:54:50.697Z,3.93
2024-04-30T20:57:18.278Z,3.20
2024-04-30T20:59:45.814Z,3.00
2024-04-30T21:02:13.403Z,2.90
2024-04-30T21:04:40.948Z,3.47
2024-04-30T21:07:08.563Z,4.33
2024-04-30T21:09:36.420Z,3.53
2024-04-30T21:12:04.162Z,3.27
2024-04-30T21:14:31.695Z,3.60
2024-04-30T21:17:00.005Z,3.10
2024-04-30T21:19:28.615Z,3.03
2024-04-30T21:21:57.796Z,3.50
2024-04-30T21:24:25.634Z,2.87
2024-04-30T21:26:53.175Z,3.57
2024-04-30T21:29:21.172Z,3.23
2024-04-30T21:31:48.988Z,3.27
2024-04-30T21:34:16.598Z,2.97
2024-04-30T21:36:46.500Z,3.20
2024-04-30T21:39:14.786Z,3.47
2024-04-30T21:41:42.415Z,3.20
2024-04-30T21:44:09.980Z,3.10
2024-04-30T21:46:42.261Z,2.50
2024-04-30T21:49:09.945Z,3.03
2024-04-30T21:51:37.649Z,3.00
2024-04-30T21:54:05.450Z,3.70
2024-04-30T21:56:33.540Z,3.60
2024-04-30T21:59:01.125Z,3.43
2024-04-30T22:01:28.781Z,3.60
2024-04-30T22:03:56.651Z,3.37
2024-04-30T22:06:24.692Z,3.43
2024-04-30T22:08:52.604Z,3.10
2024-04-30T22:11:21.781Z,3.37
2024-04-30T22:13:49.695Z,3.33
2024-04-30T22:16:17.421Z,3.17
2024-04-30T22:18:45.313Z,3.43
2024-04-30T22:21:15.322Z,3.43
2024-04-30T22:23:45.019Z,3.73
2024-04-30T22:26:12.701Z,4.03
2024-04-30T22:28:40.300Z,3.20
2024-04-30T22:31:09.891Z,3.33
2024-04-30T22:33:38.035Z,3.60
2024-04-30T22:36:06.235Z,3.50
2024-04-30T22:38:33.847Z,3.33
2024-04-30T22:41:01.389Z,3.13
2024-04-30T22:43:28.979Z,3.07
2024-04-30T22:45:57.324Z,3.53
2024-04-30T22:48:25.105Z,4.10
2024-04-30T22:50:52.728Z,3.07
2024-04-30T22:53:20.346Z,3.97
2024-04-30T22:55:47.855Z,3.40
2024-04-30T22:58:15.421Z,4.00
2024-04-30T23:00:43.040Z,3.43
2024-04-30T23:03:10.623Z,3.17
2024-04-30T23:05:38.143Z,3.50
2024-04-30T23:08:06.202Z,4.17
2024-04-30T23:10:34.311Z,3.80
2024-04-30T23:13:01.974Z,3.30
2024-04-30T23:15:29.544Z,3.57
2024-04-30T23:17:57.233Z,3.60
2024-04-30T23:20:24.831Z,3.57
2024-04-30T23:22:52.389Z,3.73
2024-04-30T23:25:19.883Z,4.37
2024-04-30T23:27:47.961Z,3.70
2024-04-30T23:30:15.769Z,3.90
2024-04-30T23:32:43.312Z,3.50
2024-04-30T23:35:10.888Z,3.77
2024-04-30T23:37:38.388Z,3.67
2024-04-30T23:40:07.722Z,3.43
2024-04-30T23:42:38.435Z,4.00
2024-04-30T23:45:07.015Z,3.70
2024-04-30T23:47:35.050Z,4.33
2024-04-30T23:50:03.416Z,3.43
2024-04-30T23:52:31.025Z,3.43
2024-04-30T23:54:58.837Z,3.90
2024-04-30T23:57:26.516Z,4.70
2024-04-30T23:59:55.411Z,3.90
